Time;durP1;ratioP1;P1;durP2;ratioP2;P2;SDS_P1;SDS_P2;PMS_P1;PMS_P2;Temp;Humidity;BMP_temperature;BMP_pressure;BME280_temperature;BME280_humidity;BME280_pressure;Samples;Min_cycle;Max_cycle;Signal;HPM_P1;HPM_P2
2022/04/19 00:01:33;;;;;;;0.60;0.60;;;4.70;1.00;;;;;;5094956;28;20262;-77
2022/04/19 00:03:58;;;;;;;0.80;0.80;;;4.60;1.00;;;;;;5094975;28;20542;-76
2022/04/19 00:06:24;;;;;;;0.80;0.80;;;4.70;99.90;;;;;;5094888;28;20181;-77
2022/04/19 00:08:51;;;;;;;0.80;0.80;;;4.70;1.00;;;;;;5094949;28;20315;-80
2022/04/19 00:11:24;;;;;;;0.73;0.73;;;4.40;99.90;;;;;;5097625;28;20567;-77
2022/04/19 00:13:50;;;;;;;0.80;0.80;;;4.40;99.90;;;;;;5098521;28;20188;-77
2022/04/19 00:16:15;;;;;;;0.77;0.77;;;4.30;1.00;;;;;;5100188;28;20253;-77
2022/04/19 00:18:41;;;;;;;0.80;0.80;;;4.20;99.90;;;;;;5099395;28;20181;-78
2022/04/19 00:21:06;;;;;;;0.80;0.80;;;4.30;1.00;;;;;;5098844;28;20189;-78
2022/04/19 00:23:32;;;;;;;0.87;0.87;;;4.40;1.00;;;;;;5099525;28;20185;-78
2022/04/19 00:25:57;;;;;;;0.70;0.70;;;4.40;1.00;;;;;;5099077;28;20377;-78
2022/04/19 00:28:24;;;;;;;0.77;0.77;;;4.30;1.00;;;;;;5098333;28;20209;-78
2022/04/19 00:30:49;;;;;;;0.80;0.80;;;4.40;1.00;;;;;;5098083;28;20197;-78
2022/04/19 00:33:15;;;;;;;0.90;0.90;;;4.30;1.00;;;;;;5097781;28;20182;-78
2022/04/19 00:35:42;;;;;;;0.80;0.80;;;4.20;1.00;;;;;;5097961;28;20172;-77
2022/04/19 00:38:07;;;;;;;0.90;0.90;;;4.10;99.90;;;;;;5097651;28;20665;-77
2022/04/19 00:40:34;;;;;;;0.80;0.80;;;4.10;99.90;;;;;;5096253;28;20213;-77
2022/04/19 00:43:00;;;;;;;0.80;0.80;;;4.00;1.00;;;;;;5095796;28;20591;-77
2022/04/19 00:45:26;;;;;;;0.80;0.80;;;3.90;19.00;;;;;;5096756;28;20177;-78
2022/04/19 00:47:53;;;;;;;0.90;0.90;;;4.00;93.90;;;;;;5096814;28;20234;-78
2022/04/19 00:50:19;;;;;;;0.80;0.80;;;4.00;82.30;;;;;;5095898;28;20212;-77
2022/04/19 00:52:45;;;;;;;0.90;0.90;;;3.90;90.90;;;;;;5096862;28;20182;-77
2022/04/19 00:55:12;;;;;;;0.80;0.80;;;3.90;1.00;;;;;;5097740;28;20181;-77
2022/04/19 00:57:38;;;;;;;0.80;0.80;;;3.80;99.90;;;;;;5098037;28;20188;-76
2022/04/19 01:00:08;;;;;;;0.80;0.80;;;3.80;99.90;;;;;;5096981;28;20253;-76
2022/04/19 01:02:36;;;;;;;0.80;0.80;;;3.90;99.90;;;;;;5097364;28;20684;-77
2022/04/19 01:05:04;;;;;;;0.80;0.80;;;3.50;99.90;;;;;;5098257;28;20174;-77
2022/04/19 01:07:30;;;;;;;0.80;0.80;;;4.00;99.90;;;;;;5099214;28;20262;-77
2022/04/19 01:09:56;;;;;;;0.80;0.80;;;3.80;99.90;;;;;;5097005;28;20189;-80
2022/04/19 01:15:11;;;;;;;0.80;0.80;;;3.70;1.00;;;;;;5097403;28;20197;-78
2022/04/19 01:17:41;;;;;;;0.73;0.73;;;3.60;1.00;;;;;;5099724;28;20177;-78
2022/04/19 01:20:12;;;;;;;0.73;0.73;;;3.70;99.90;;;;;;5098995;28;20197;-78
2022/04/19 01:22:42;;;;;;;0.80;0.80;;;3.60;1.00;;;;;;5101452;28;20174;-78
2022/04/19 01:25:13;;;;;;;0.80;0.80;;;3.60;1.00;;;;;;5104546;28;20174;-78
2022/04/19 01:27:39;;;;;;;0.80;0.80;;;3.60;1.00;;;;;;5098730;28;20289;-79
2022/04/19 01:30:08;;;;;;;0.80;0.80;;;3.50;1.00;;;;;;5094195;28;20209;-78
2022/04/19 01:32:34;;;;;;;0.80;0.80;;;3.40;1.00;;;;;;5094851;28;20235;-78
2022/04/19 01:35:10;;;;;;;0.90;0.90;;;3.40;1.00;;;;;;5094733;28;20174;-78
2022/04/19 01:37:37;;;;;;;0.90;0.90;;;3.20;1.00;;;;;;5095261;28;20201;-79
2022/04/19 01:40:16;;;;;;;0.90;0.90;;;3.40;1.00;;;;;;5097327;28;20174;-77
2022/04/19 01:42:44;;;;;;;0.80;0.80;;;3.40;1.00;;;;;;5077409;28;20202;-78
2022/04/19 01:45:10;;;;;;;0.80;0.80;;;3.40;1.00;;;;;;5094266;28;20548;-79
2022/04/19 01:47:35;;;;;;;0.80;0.80;;;3.30;1.00;;;;;;5102452;28;20209;-78
2022/04/19 01:50:01;;;;;;;0.80;0.80;;;3.20;1.00;;;;;;5115337;28;20233;-78
2022/04/19 01:52:27;;;;;;;0.80;0.80;;;3.10;1.00;;;;;;5110283;28;20658;-79
2022/04/19 01:54:53;;;;;;;0.70;0.70;;;3.00;1.00;;;;;;5099350;28;20193;-79
2022/04/19 01:57:19;;;;;;;0.90;0.90;;;3.00;1.00;;;;;;5096934;28;20178;-79
2022/04/19 01:59:45;;;;;;;0.80;0.80;;;3.00;1.00;;;;;;5095941;28;20200;-80
2022/04/19 02:02:10;;;;;;;0.80;0.80;;;3.00;1.00;;;;;;5097682;28;20659;-77
2022/04/19 02:04:36;;;;;;;0.90;0.90;;;3.10;1.00;;;;;;5094440;28;20185;-77
2022/04/19 02:07:04;;;;;;;0.90;0.90;;;3.10;1.00;;;;;;5095949;28;20194;-77
2022/04/19 02:09:29;;;;;;;0.80;0.80;;;2.90;1.00;;;;;;5096230;28;20177;-76
2022/04/19 02:11:55;;;;;;;0.80;0.80;;;2.90;1.00;;;;;;5096816;28;20198;-76
2022/04/19 02:14:23;;;;;;;0.80;0.80;;;2.90;1.00;;;;;;5096985;28;20226;-77
2022/04/19 02:16:52;;;;;;;0.80;0.80;;;2.90;1.00;;;;;;5095975;28;20170;-77
2022/04/19 02:19:18;;;;;;;0.80;0.80;;;2.90;1.00;;;;;;5095285;28;20280;-77
2022/04/19 02:21:45;;;;;;;0.80;0.80;;;2.80;1.00;;;;;;5094570;28;20746;-76
2022/04/19 02:24:11;;;;;;;0.80;0.80;;;2.80;1.00;;;;;;5099108;28;20174;-77
2022/04/19 02:26:36;;;;;;;0.80;0.80;;;2.80;1.00;;;;;;5098207;28;20189;-79
2022/04/19 02:29:02;;;;;;;0.90;0.90;;;2.80;1.00;;;;;;5099350;28;20209;-77
2022/04/19 02:31:28;;;;;;;0.90;0.90;;;2.80;1.00;;;;;;5101548;28;20709;-77
2022/04/19 02:33:54;;;;;;;0.80;0.80;;;3.10;1.00;;;;;;5099189;28;20234;-78
2022/04/19 02:36:21;;;;;;;0.90;0.90;;;2.70;1.00;;;;;;5099078;28;20182;-78
2022/04/19 02:38:46;;;;;;;0.77;0.77;;;2.80;1.00;;;;;;5099517;28;20178;-77
2022/04/19 02:41:12;;;;;;;0.80;0.80;;;2.80;1.00;;;;;;5099423;28;20196;-78
2022/04/19 02:43:38;;;;;;;0.80;0.80;;;2.80;1.00;;;;;;5100384;28;20170;-78
2022/04/19 02:46:04;;;;;;;0.80;0.80;;;2.70;1.00;;;;;;5094073;28;20218;-78
2022/04/19 02:48:30;;;;;;;0.80;0.80;;;2.70;1.00;;;;;;5093413;28;20221;-77
2022/04/19 02:50:56;;;;;;;0.80;0.80;;;2.70;1.00;;;;;;5092207;28;20209;-77
2022/04/19 02:53:22;;;;;;;0.70;0.70;;;2.70;1.00;;;;;;5093247;28;20525;-77
2022/04/19 02:55:48;;;;;;;0.80;0.80;;;2.60;1.00;;;;;;5093413;28;20169;-77
2022/04/19 02:58:14;;;;;;;0.80;0.80;;;2.60;1.00;;;;;;5093449;28;20173;-77
2022/04/19 03:00:39;;;;;;;0.80;0.80;;;2.60;1.00;;;;;;5093258;28;20197;-77
2022/04/19 03:03:05;;;;;;;0.90;0.90;;;2.70;1.00;;;;;;5093861;28;20208;-76
2022/04/19 03:05:33;;;;;;;0.80;0.80;;;2.80;1.00;;;;;;5092350;28;20635;-76
2022/04/19 03:07:59;;;;;;;0.80;0.80;;;2.70;1.00;;;;;;5092607;28;20209;-77
2022/04/19 03:10:24;;;;;;;0.70;0.70;;;2.70;1.00;;;;;;5092036;28;20258;-77
2022/04/19 03:12:52;;;;;;;0.80;0.80;;;2.50;1.00;;;;;;5092152;28;20174;-77
2022/04/19 03:15:20;;;;;;;0.80;0.80;;;2.40;1.00;;;;;;5092294;28;20553;-77
2022/04/19 03:17:45;;;;;;;0.87;0.87;;;2.40;1.00;;;;;;5092390;28;20219;-77
2022/04/19 03:20:11;;;;;;;0.80;0.80;;;2.30;1.00;;;;;;5091393;28;20611;-77
2022/04/19 03:28:06;;;;;;;0.80;0.80;;;2.10;1.00;;;;;;5085247;28;20234;-77
2022/04/19 03:30:32;;;;;;;0.80;0.80;;;2.10;1.00;;;;;;5081464;28;20683;-77
2022/04/19 03:32:59;;;;;;;0.80;0.80;;;2.10;1.00;;;;;;5095653;28;20197;-77
2022/04/19 03:35:25;;;;;;;0.70;0.70;;;2.20;1.00;;;;;;5093191;28;20558;-77
2022/04/19 03:37:50;;;;;;;0.90;0.90;;;2.20;1.00;;;;;;5092791;28;20650;-77
2022/04/19 03:40:16;;;;;;;0.80;0.80;;;2.30;1.00;;;;;;5092491;28;20189;-77
2022/04/19 03:42:42;;;;;;;0.80;0.80;;;2.30;1.00;;;;;;5093147;28;20201;-77
2022/04/19 03:45:09;;;;;;;0.80;0.80;;;2.40;1.00;;;;;;5092996;28;20205;-77
2022/04/19 03:47:35;;;;;;;0.80;0.80;;;2.30;1.00;;;;;;5092053;28;20231;-77
2022/04/19 03:50:01;;;;;;;0.90;0.90;;;2.20;1.00;;;;;;5091473;28;20174;-77
2022/04/19 03:52:27;;;;;;;0.80;0.80;;;2.10;1.00;;;;;;5094972;28;20185;-77
2022/04/19 03:54:52;;;;;;;0.70;0.70;;;2.20;1.00;;;;;;5092842;28;20224;-76
2022/04/19 03:57:18;;;;;;;0.80;0.80;;;2.20;1.00;;;;;;5092806;28;20576;-76
2022/04/19 03:59:44;;;;;;;0.70;0.70;;;2.10;1.00;;;;;;5091338;28;20261;-76
2022/04/19 04:02:10;;;;;;;0.80;0.80;;;2.00;1.00;;;;;;5091632;28;20289;-76
2022/04/19 04:04:36;;;;;;;0.70;0.70;;;2.00;1.00;;;;;;5072397;28;20183;-75
2022/04/19 04:07:03;;;;;;;0.80;0.80;;;2.00;1.00;;;;;;5071131;28;20288;-76
2022/04/19 04:09:32;;;;;;;0.90;0.90;;;1.90;1.00;;;;;;5064039;28;20179;-76
2022/04/19 04:12:00;;;;;;;0.90;0.90;;;2.00;1.00;;;;;;5060926;28;20266;-76
2022/04/19 04:14:26;;;;;;;0.80;0.80;;;2.00;1.00;;;;;;5060080;28;20172;-76
2022/04/19 04:16:51;;;;;;;0.83;0.83;;;2.00;1.00;;;;;;5060018;28;20221;-76
2022/04/19 04:19:17;;;;;;;0.70;0.70;;;1.90;1.00;;;;;;5060749;28;20174;-76
2022/04/19 04:21:43;;;;;;;0.80;0.80;;;1.90;1.00;;;;;;5061300;28;20203;-76
2022/04/19 04:24:08;;;;;;;0.80;0.80;;;1.90;1.00;;;;;;5072655;28;20212;-75
2022/04/19 04:26:34;;;;;;;0.80;0.80;;;1.90;1.00;;;;;;5065015;28;20187;-75
2022/04/19 04:29:00;;;;;;;0.90;0.90;;;1.70;1.00;;;;;;5065386;28;20177;-76
2022/04/19 04:31:25;;;;;;;0.80;0.80;;;1.90;1.00;;;;;;5062055;28;20549;-76
2022/04/19 04:33:51;;;;;;;0.90;0.90;;;1.90;1.00;;;;;;5063334;28;20365;-76
2022/04/19 04:36:16;;;;;;;0.80;0.80;;;1.90;1.00;;;;;;5062961;28;20206;-76
2022/04/19 04:38:42;;;;;;;0.80;0.80;;;1.90;1.00;;;;;;5061876;28;20194;-76
2022/04/19 04:41:07;;;;;;;0.80;0.80;;;2.80;1.00;;;;;;5047717;28;20201;-75
2022/04/19 04:43:33;;;;;;;0.80;0.80;;;2.00;1.00;;;;;;5073604;28;20228;-77
2022/04/19 04:51:27;;;;;;;0.90;0.90;;;2.00;1.00;;;;;;5090519;28;20310;-76
2022/04/19 04:53:52;;;;;;;0.80;0.80;;;2.10;1.00;;;;;;5095641;28;20166;-76
2022/04/19 04:56:18;;;;;;;0.63;0.63;;;2.30;1.00;;;;;;5095417;28;20599;-77
2022/04/19 04:58:43;;;;;;;0.87;0.87;;;2.30;1.00;;;;;;5094834;28;20249;-77
2022/04/19 05:01:09;;;;;;;0.80;0.80;;;2.50;1.00;;;;;;5093794;28;20507;-77
2022/04/19 05:03:34;;;;;;;0.80;0.80;;;2.40;1.00;;;;;;5094200;28;20224;-77
2022/04/19 05:06:00;;;;;;;0.80;0.80;;;2.40;1.00;;;;;;5094048;28;20209;-77
2022/04/19 05:08:25;;;;;;;0.80;0.80;;;2.40;1.00;;;;;;5077045;28;20222;-76
2022/04/19 05:10:51;;;;;;;0.80;0.80;;;2.30;1.00;;;;;;5087501;28;20701;-77
2022/04/19 05:13:16;;;;;;;0.80;0.80;;;2.40;1.00;;;;;;5091266;28;20250;-76
2022/04/19 05:15:42;;;;;;;0.80;0.80;;;2.50;1.00;;;;;;5097017;28;20174;-76
2022/04/19 05:18:07;;;;;;;0.80;0.80;;;3.20;1.00;;;;;;5096919;28;20256;-76
2022/04/19 05:20:33;;;;;;;0.80;0.80;;;2.40;1.00;;;;;;5094879;28;20190;-76
2022/04/19 05:22:58;;;;;;;0.70;0.70;;;2.60;1.00;;;;;;5094374;28;20530;-76
2022/04/19 05:25:24;;;;;;;0.80;0.80;;;2.90;1.00;;;;;;5094595;28;20170;-76
2022/04/19 05:27:49;;;;;;;0.80;0.80;;;3.00;1.00;;;;;;5093897;28;20217;-77
2022/04/19 05:30:15;;;;;;;0.80;0.80;;;3.00;1.00;;;;;;5093990;28;20201;-76
2022/04/19 05:32:40;;;;;;;0.80;0.80;;;3.40;1.00;;;;;;5093496;28;20524;-75
2022/04/19 05:35:06;;;;;;;0.80;0.80;;;3.60;1.00;;;;;;5093305;28;20196;-75
2022/04/19 05:37:36;;;;;;;0.80;0.80;;;3.50;1.00;;;;;;5093383;28;20170;-75
2022/04/19 05:40:02;;;;;;;0.80;0.80;;;3.40;1.00;;;;;;5095488;28;20255;-77
2022/04/19 05:42:27;;;;;;;0.80;0.80;;;3.50;1.00;;;;;;5093895;28;20205;-77
2022/04/19 05:44:53;;;;;;;0.80;0.80;;;3.50;1.00;;;;;;5093292;28;20749;-76
2022/04/19 05:47:18;;;;;;;0.73;0.73;;;3.30;1.00;;;;;;5090522;28;20212;-77
2022/04/19 05:49:44;;;;;;;0.80;0.80;;;3.40;1.00;;;;;;5074720;28;20192;-77
2022/04/19 05:52:09;;;;;;;0.80;0.80;;;3.40;1.00;;;;;;5075025;28;20206;-76
2022/04/19 05:54:35;;;;;;;0.70;0.70;;;3.70;1.00;;;;;;5073642;28;20551;-76
2022/04/19 05:57:00;;;;;;;0.77;0.77;;;3.80;1.00;;;;;;5056520;28;20552;-77
2022/04/19 05:59:26;;;;;;;0.80;0.80;;;4.00;1.00;;;;;;5056607;28;20667;-76
2022/04/19 06:04:54;;;;;;;0.80;0.80;;;4.00;1.00;;;;;;5056323;28;20273;-76
2022/04/19 06:07:20;;;;;;;0.80;0.80;;;4.60;1.00;;;;;;5055935;28;20222;-76
2022/04/19 06:09:46;;;;;;;0.70;0.70;;;5.20;99.90;;;;;;5054925;28;20170;-77
2022/04/19 06:12:12;;;;;;;0.87;0.87;;;4.90;99.90;;;;;;5057105;28;20668;-76
2022/04/19 06:14:38;;;;;;;0.80;0.80;;;5.30;99.90;;;;;;5080611;28;20545;-76
2022/04/19 06:17:04;;;;;;;0.80;0.80;;;5.30;99.90;;;;;;5074715;28;20643;-76
2022/04/19 06:19:30;;;;;;;0.80;0.80;;;5.20;99.90;;;;;;5074989;28;20658;-76
2022/04/19 06:21:56;;;;;;;0.80;0.80;;;5.20;99.90;;;;;;5072162;28;20215;-76
2022/04/19 06:24:22;;;;;;;0.70;0.70;;;5.70;99.90;;;;;;5070064;28;20508;-76
2022/04/19 06:26:48;;;;;;;0.80;0.80;;;6.50;99.90;;;;;;5082743;28;20617;-76
2022/04/19 06:29:14;;;;;;;0.63;0.63;;;6.90;99.90;;;;;;5078575;28;20674;-76
2022/04/19 06:31:46;;;;;;;0.70;0.70;;;6.60;1.00;;;;;;5091162;28;20186;-77
2022/04/19 06:34:12;;;;;;;0.70;0.70;;;6.30;1.00;;;;;;5084126;28;20200;-76
2022/04/19 06:36:37;;;;;;;0.70;0.70;;;6.70;1.00;;;;;;5093511;28;20544;-76
2022/04/19 06:39:03;;;;;;;0.70;0.70;;;6.50;1.00;;;;;;5092947;28;20257;-76
2022/04/19 06:41:29;;;;;;;0.73;0.73;;;6.80;99.90;;;;;;5091731;28;20193;-77
2022/04/19 06:43:57;;;;;;;0.80;0.80;;;7.00;1.00;;;;;;5074025;28;20213;-77
2022/04/19 06:46:25;;;;;;;0.70;0.70;;;6.70;1.00;;;;;;5077585;28;20181;-77
2022/04/19 06:48:54;;;;;;;0.70;0.70;;;7.00;1.00;;;;;;5094328;28;20220;-77
2022/04/19 06:51:20;;;;;;;0.67;0.67;;;7.60;99.90;;;;;;5094590;28;20206;-76
2022/04/19 06:53:46;;;;;;;0.60;0.60;;;8.10;1.00;;;;;;5094102;28;20174;-77
2022/04/19 06:56:11;;;;;;;0.60;0.60;;;8.30;1.00;;;;;;5093679;28;20178;-77
2022/04/19 06:58:39;;;;;;;0.60;0.60;;;8.40;99.90;;;;;;5094749;28;20553;-78
2022/04/19 07:01:05;;;;;;;0.70;0.70;;;9.00;99.90;;;;;;5090160;28;20204;-77
2022/04/19 07:03:31;;;;;;;0.60;0.60;;;9.00;99.90;;;;;;5081775;28;20259;-77
2022/04/19 07:05:57;;;;;;;0.70;0.70;;;8.90;99.90;;;;;;5084728;28;20258;-77
2022/04/19 07:08:23;;;;;;;0.50;0.50;;;8.90;99.90;;;;;;5078699;28;20295;-77
2022/04/19 07:10:48;;;;;;;0.60;0.60;;;9.00;99.90;;;;;;5051978;28;20289;-77
2022/04/19 07:13:14;;;;;;;0.60;0.60;;;9.60;85.90;;;;;;5079165;28;20184;-79
2022/04/19 07:15:39;;;;;;;0.70;0.70;;;10.00;1.00;;;;;;5081509;28;20192;-77
2022/04/19 07:18:05;;;;;;;0.60;0.60;;;11.20;1.00;;;;;;5074920;28;20197;-77
2022/04/19 07:28:43;;;;;;;0.40;0.40;;;14.30;1.00;;;;;;5060736;28;20268;-78
2022/04/19 07:31:09;;;;;;;0.37;0.37;;;14.30;1.00;;;;;;5077216;28;20185;-78
2022/04/19 07:33:37;;;;;;;0.30;0.30;;;14.30;1.00;;;;;;5083699;28;20937;-78
2022/04/19 07:36:04;;;;;;;0.40;0.40;;;14.50;1.00;;;;;;5092499;28;20264;-77
2022/04/19 07:38:30;;;;;;;0.40;0.40;;;13.70;1.00;;;;;;5092266;28;20207;-77
2022/04/19 07:40:55;;;;;;;0.40;0.40;;;13.60;1.00;;;;;;5100172;28;20288;-77
2022/04/19 07:43:21;;;;;;;0.40;0.40;;;12.90;1.00;;;;;;5088421;28;20174;-77
2022/04/19 07:45:46;;;;;;;0.40;0.40;;;12.90;1.00;;;;;;5100978;28;20640;-77
2022/04/19 07:48:12;;;;;;;0.40;0.40;;;13.60;1.00;;;;;;5065988;28;20209;-77
2022/04/19 07:50:39;;;;;;;0.30;0.30;;;14.10;1.00;;;;;;5086913;28;20240;-76
2022/04/19 07:53:05;;;;;;;0.40;0.40;;;14.70;1.00;;;;;;5094930;28;20677;-78
2022/04/19 07:55:31;;;;;;;0.40;0.40;;;15.40;1.00;;;;;;5096021;28;20291;-76
2022/04/19 07:57:57;;;;;;;0.30;0.30;;;14.90;1.00;;;;;;5095014;28;20173;-77
2022/04/19 08:00:27;;;;;;;0.40;0.40;;;15.00;1.00;;;;;;5093709;28;20662;-76
2022/04/19 08:02:53;;;;;;;0.37;0.37;;;15.00;1.00;;;;;;5092953;28;20201;-76
2022/04/19 08:05:18;;;;;;;0.40;0.40;;;15.40;1.00;;;;;;5092690;28;20228;-77
2022/04/19 08:07:44;;;;;;;0.40;0.40;;;15.90;1.00;;;;;;5093377;28;20222;-77
2022/04/19 08:10:10;;;;;;;0.40;0.40;;;15.90;1.00;;;;;;5092464;28;20202;-78
2022/04/19 08:12:35;;;;;;;0.40;0.40;;;15.90;1.00;;;;;;5063649;28;20285;-77
2022/04/19 08:15:01;;;;;;;0.40;0.40;;;15.70;1.00;;;;;;5074251;28;20173;-77
2022/04/19 08:17:26;;;;;;;0.40;0.40;;;15.60;1.00;;;;;;5080752;28;20253;-77
2022/04/19 08:19:55;;;;;;;0.40;0.40;;;15.40;1.00;;;;;;5077437;28;20181;-77
2022/04/19 08:22:21;;;;;;;0.40;0.40;;;15.10;1.00;;;;;;5075355;28;20174;-77
2022/04/19 08:24:47;;;;;;;0.40;0.40;;;14.60;1.00;;;;;;5085946;28;20668;-77
2022/04/19 08:27:15;;;;;;;0.40;0.40;;;15.00;1.00;;;;;;5090757;28;20291;-78
2022/04/19 08:29:43;;;;;;;0.40;0.40;;;15.90;1.00;;;;;;5070667;28;20192;-77
2022/04/19 08:32:08;;;;;;;0.30;0.30;;;16.80;1.00;;;;;;5070148;28;20702;-77
2022/04/19 08:34:34;;;;;;;0.30;0.30;;;16.80;1.00;;;;;;5076937;28;20179;-78
2022/04/19 08:37:00;;;;;;;0.40;0.40;;;16.60;1.00;;;;;;5071110;28;20865;-78
2022/04/19 08:39:25;;;;;;;0.30;0.30;;;16.50;1.00;;;;;;5071196;28;20194;-77
2022/04/19 08:41:51;;;;;;;0.30;0.30;;;17.00;1.00;;;;;;5077257;28;20232;-78
2022/04/19 08:44:17;;;;;;;0.30;0.30;;;17.10;1.00;;;;;;5088747;28;20546;-78
2022/04/19 08:46:43;;;;;;;0.33;0.33;;;18.00;1.00;;;;;;5082364;28;20656;-77
2022/04/19 08:49:09;;;;;;;0.30;0.30;;;18.00;1.00;;;;;;5071625;28;20473;-78
2022/04/19 08:51:38;;;;;;;0.40;0.40;;;18.00;1.00;;;;;;5074120;28;20273;-78
2022/04/19 08:59:32;;;;;;;0.30;0.30;;;19.20;1.00;;;;;;5096449;28;20614;-77
2022/04/19 09:01:59;;;;;;;0.30;0.30;;;19.70;1.00;;;;;;5077371;28;20278;-77
2022/04/19 09:04:26;;;;;;;0.30;0.30;;;19.30;1.00;;;;;;5079857;28;20198;-78
2022/04/19 09:06:56;;;;;;;0.40;0.40;;;19.30;1.00;;;;;;5075652;28;20242;-78
2022/04/19 09:09:24;;;;;;;0.40;0.40;;;19.40;1.00;;;;;;5072597;28;20217;-77
2022/04/19 09:11:51;;;;;;;0.40;0.40;;;19.50;1.00;;;;;;5086283;28;20631;-77
2022/04/19 09:14:17;;;;;;;0.50;0.50;;;20.00;1.00;;;;;;5095481;28;20208;-78
2022/04/19 09:16:44;;;;;;;0.50;0.50;;;20.70;1.00;;;;;;5082346;28;20205;-77
2022/04/19 09:19:10;;;;;;;0.50;0.50;;;20.70;1.00;;;;;;5071080;28;20170;-80
2022/04/19 09:21:40;;;;;;;0.50;0.50;;;21.10;1.00;;;;;;5082814;28;20557;-79
2022/04/19 09:24:26;;;;;;;0.50;0.50;;;20.60;1.00;;;;;;5080517;28;20452;-80
2022/04/19 09:26:52;;;;;;;0.47;0.47;;;20.70;1.00;;;;;;5095067;28;20236;-79
2022/04/19 09:29:26;;;;;;;0.40;0.40;;;20.90;1.00;;;;;;5099268;28;20182;-78
2022/04/19 09:32:01;;;;;;;0.40;0.40;;;21.00;1.00;;;;;;5097375;28;20290;-80
2022/04/19 09:34:30;;;;;;;0.47;0.47;;;21.50;1.00;;;;;;5092358;28;20700;-79
2022/04/19 09:37:13;;;;;;;0.60;0.60;;;20.80;1.00;;;;;;5080049;28;20371;-80
2022/04/19 09:39:40;;;;;;;0.50;0.50;;;20.70;1.00;;;;;;5096796;28;20548;-80
2022/04/19 09:42:12;;;;;;;0.50;0.50;;;21.30;1.00;;;;;;5094679;28;20243;-80
2022/04/19 09:44:50;;;;;;;0.60;0.60;;;21.30;1.00;;;;;;5085400;28;20552;-79
2022/04/19 09:47:17;;;;;;;0.60;0.60;;;21.40;1.00;;;;;;5096143;28;20201;-80
2022/04/19 09:49:46;;;;;;;0.60;0.60;;;21.40;1.00;;;;;;5086290;28;20182;-80
2022/04/19 09:52:21;;;;;;;0.50;0.50;;;21.40;1.00;;;;;;5067508;28;20707;-80
2022/04/19 09:55:08;;;;;;;0.40;0.40;;;21.20;1.00;;;;;;5077782;28;20266;-80
2022/04/19 09:57:39;;;;;;;0.40;0.40;;;21.30;1.00;;;;;;5065511;28;20179;-78
2022/04/19 10:00:12;;;;;;;0.50;0.50;;;21.30;1.00;;;;;;5064194;28;20652;-78
2022/04/19 10:10:51;;;;;;;0.40;0.40;;;21.50;1.00;;;;;;5040680;28;20223;-81
2022/04/19 10:13:23;;;;;;;0.43;0.43;;;21.80;1.00;;;;;;5045557;28;20242;-80
2022/04/19 10:15:49;;;;;;;0.47;0.47;;;22.10;1.00;;;;;;5038691;28;20203;-82
2022/04/19 10:18:15;;;;;;;0.50;0.50;;;22.20;1.00;;;;;;5045638;28;20185;-81
2022/04/19 10:20:54;;;;;;;0.30;0.30;;;21.90;1.00;;;;;;5043565;28;20206;-81
2022/04/19 10:23:21;;;;;;;0.50;0.50;;;22.00;1.00;;;;;;5044521;28;20186;-79
2022/04/19 10:25:48;;;;;;;0.30;0.30;;;21.40;1.00;;;;;;5045094;28;20542;-79
2022/04/19 10:28:27;;;;;;;0.50;0.50;;;20.60;1.00;;;;;;5037115;28;20220;-79
2022/04/19 10:30:53;;;;;;;0.30;0.30;;;20.50;1.00;;;;;;5032463;28;20291;-80
2022/04/19 10:33:38;;;;;;;0.33;0.33;;;20.40;1.00;;;;;;5029279;28;20182;-80
2022/04/19 10:36:10;;;;;;;0.30;0.30;;;21.30;1.00;;;;;;5022894;28;20192;-79
2022/04/19 10:38:36;;;;;;;0.40;0.40;;;20.50;1.00;;;;;;5027785;28;20223;-79
2022/04/19 10:41:03;;;;;;;0.40;0.40;;;21.10;1.00;;;;;;5033139;28;20230;-81
2022/04/19 10:43:31;;;;;;;0.30;0.30;;;21.40;1.00;;;;;;5032940;28;20229;-80
2022/04/19 10:46:17;;;;;;;0.30;0.30;;;21.40;1.00;;;;;;5032796;28;20186;-79
2022/04/19 10:49:20;;;;;;;0.30;0.30;;;21.50;1.00;;;;;;5032643;28;20215;-81
2022/04/19 10:51:46;;;;;;;0.27;0.27;;;21.40;1.00;;;;;;5033193;28;20198;-80
2022/04/19 10:54:13;;;;;;;0.30;0.30;;;22.00;1.00;;;;;;5032447;28;20179;-81
2022/04/19 11:00:19;;;;;;;0.30;0.30;;;21.20;1.00;;;;;;5032542;28;20218;-79
2022/04/19 11:02:56;;;;;;;0.30;0.30;;;21.70;1.00;;;;;;5030672;28;20179;-79
2022/04/19 11:05:35;;;;;;;0.30;0.30;;;21.70;1.00;;;;;;5032667;28;20262;-79
2022/04/19 11:08:30;;;;;;;0.40;0.40;;;21.90;1.00;;;;;;5032945;28;20204;-79
2022/04/19 11:10:56;;;;;;;0.40;0.40;;;21.80;1.00;;;;;;5031751;28;20672;-79
2022/04/19 11:14:09;;;;;;;0.40;0.40;;;22.20;1.00;;;;;;5032510;28;20318;-80
2022/04/19 11:16:37;;;;;;;0.40;0.40;;;22.10;1.00;;;;;;5023530;28;20183;-80
2022/04/19 11:19:16;;;;;;;0.47;0.47;;;22.20;1.00;;;;;;5014485;28;20184;-80
2022/04/19 11:21:50;;;;;;;0.30;0.30;;;21.90;1.00;;;;;;5032000;28;20253;-79
2022/04/19 11:24:57;;;;;;;0.30;0.30;;;22.20;1.00;;;;;;5032475;28;20556;-81
2022/04/19 11:27:24;;;;;;;0.30;0.30;;;22.20;1.00;;;;;;5018327;28;20663;-80
2022/04/19 11:29:50;;;;;;;0.30;0.30;;;21.90;1.00;;;;;;5031963;28;20188;-80
2022/04/19 11:32:21;;;;;;;0.30;0.30;;;22.00;1.00;;;;;;5032634;28;20171;-79
2022/04/19 11:34:57;;;;;;;0.30;0.30;;;22.40;1.00;;;;;;5027034;28;20184;-83
2022/04/19 11:37:24;;;;;;;0.30;0.30;;;22.70;1.00;;;;;;5032855;28;20183;-80
2022/04/19 11:48:05;;;;;;;0.30;0.30;;;21.90;1.00;;;;;;5028343;28;20261;-80
2022/04/19 11:50:32;;;;;;;0.30;0.30;;;22.30;1.00;;;;;;5033777;28;20208;-81
2022/04/19 11:52:58;;;;;;;0.40;0.40;;;22.40;1.00;;;;;;5034128;28;20182;-80
2022/04/19 11:55:27;;;;;;;0.30;0.30;;;22.10;1.00;;;;;;5036761;28;20202;-80
2022/04/19 11:58:06;;;;;;;0.33;0.33;;;22.10;1.00;;;;;;5039462;28;20233;-80
2022/04/19 12:00:32;;;;;;;0.40;0.40;;;21.70;1.00;;;;;;5038456;28;20231;-82
2022/04/19 12:02:59;;;;;;;0.30;0.30;;;21.70;1.00;;;;;;5036148;28;20179;-79
2022/04/19 12:05:25;;;;;;;0.40;0.40;;;21.40;1.00;;;;;;5035597;28;20233;-81
2022/04/19 12:07:52;;;;;;;0.30;0.30;;;21.40;1.00;;;;;;5036128;28;20215;-79
2022/04/19 12:10:19;;;;;;;0.33;0.33;;;21.80;1.00;;;;;;5035293;28;20207;-81
2022/04/19 12:12:46;;;;;;;0.40;0.40;;;21.60;1.00;;;;;;5046842;28;20176;-78
2022/04/19 12:15:11;;;;;;;0.30;0.30;;;21.50;1.00;;;;;;5047703;28;20186;-78
2022/04/19 12:17:44;;;;;;;0.30;0.30;;;21.50;1.00;;;;;;5046826;28;20270;-78
2022/04/19 12:20:10;;;;;;;0.30;0.30;;;22.00;1.00;;;;;;5048076;28;20192;-78
2022/04/19 12:22:36;;;;;;;0.30;0.30;;;22.00;1.00;;;;;;5045551;28;20179;-78
2022/04/19 12:25:03;;;;;;;0.30;0.30;;;22.00;1.00;;;;;;5044698;28;20346;-78
2022/04/19 12:27:34;;;;;;;0.30;0.30;;;22.00;1.00;;;;;;5041047;28;20316;-80
2022/04/19 12:30:02;;;;;;;0.33;0.33;;;21.70;1.00;;;;;;5037733;28;20175;-79
2022/04/19 12:33:03;;;;;;;0.50;0.50;;;21.90;1.00;;;;;;5037873;28;20369;-79
2022/04/19 12:35:34;;;;;;;0.30;0.30;;;22.10;1.00;;;;;;5035841;28;20271;-79
2022/04/19 12:38:16;;;;;;;0.30;0.30;;;21.60;1.00;;;;;;5038382;28;20270;-78
2022/04/19 12:40:46;;;;;;;0.30;0.30;;;21.60;1.00;;;;;;5039947;28;20613;-78
2022/04/19 12:43:15;;;;;;;0.30;0.30;;;21.80;1.00;;;;;;5044249;28;20238;-79
2022/04/19 12:45:41;;;;;;;0.30;0.30;;;21.70;1.00;;;;;;5043234;28;20180;-79
2022/04/19 12:48:17;;;;;;;0.40;0.40;;;22.00;1.00;;;;;;5042636;28;20238;-79
2022/04/19 12:50:43;;;;;;;0.30;0.30;;;22.20;1.00;;;;;;5039365;28;20218;-80
2022/04/19 12:53:24;;;;;;;0.30;0.30;;;22.00;1.00;;;;;;5036994;28;20648;-80
2022/04/19 12:55:50;;;;;;;0.30;0.30;;;21.50;1.00;;;;;;5036775;28;20179;-80
2022/04/19 12:58:16;;;;;;;0.40;0.40;;;21.20;1.00;;;;;;5036448;28;20557;-82
2022/04/19 13:00:41;;;;;;;0.30;0.30;;;21.30;1.00;;;;;;5036710;28;20226;-81
2022/04/19 13:03:07;;;;;;;0.30;0.30;;;21.30;1.00;;;;;;5036710;28;20660;-82
2022/04/19 13:13:44;;;;;;;0.30;0.30;;;21.50;1.00;;;;;;5015895;28;20242;-82
2022/04/19 13:16:10;;;;;;;0.30;0.30;;;21.20;1.00;;;;;;5016116;28;20881;-81
2022/04/19 13:18:36;;;;;;;0.50;0.50;;;21.00;1.00;;;;;;5036931;28;20259;-81
2022/04/19 13:21:02;;;;;;;0.30;0.30;;;21.50;1.00;;;;;;5038832;28;20286;-80
2022/04/19 13:23:28;;;;;;;0.40;0.40;;;21.20;1.00;;;;;;5040524;28;20171;-80
2022/04/19 13:25:54;;;;;;;0.33;0.33;;;20.90;1.00;;;;;;5040212;28;20246;-79
2022/04/19 13:28:19;;;;;;;0.30;0.30;;;21.00;1.00;;;;;;5039530;28;20302;-78
2022/04/19 13:30:45;;;;;;;0.30;0.30;;;20.90;1.00;;;;;;5036260;28;20196;-78
2022/04/19 13:33:11;;;;;;;0.40;0.40;;;21.20;1.00;;;;;;5033785;28;20258;-77
2022/04/19 13:35:36;;;;;;;0.40;0.40;;;21.50;1.00;;;;;;5033275;28;20829;-75
2022/04/19 13:40:46;;;;;;;0.33;0.33;;;21.20;1.00;;;;;;5032796;28;20271;-76
2022/04/19 13:43:12;;;;;;;0.30;0.30;;;21.30;1.00;;;;;;5033406;28;20215;-77
2022/04/19 13:45:37;;;;;;;0.30;0.30;;;21.20;1.00;;;;;;5033193;28;20214;-75
2022/04/19 13:48:03;;;;;;;0.40;0.40;;;21.20;1.00;;;;;;5032890;28;20222;-76
2022/04/19 13:50:28;;;;;;;0.30;0.30;;;21.00;1.00;;;;;;5032488;28;20242;-75
2022/04/19 13:52:54;;;;;;;0.30;0.30;;;20.70;1.00;;;;;;5032860;28;20539;-75
2022/04/19 13:55:21;;;;;;;0.40;0.40;;;20.70;1.00;;;;;;5032587;28;20175;-75
2022/04/19 13:57:49;;;;;;;0.30;0.30;;;21.00;1.00;;;;;;5032294;28;20184;-75
2022/04/19 14:00:15;;;;;;;0.30;0.30;;;21.10;1.00;;;;;;5032259;28;20199;-74
2022/04/19 14:02:41;;;;;;;0.30;0.30;;;21.10;1.00;;;;;;5032910;28;20183;-76
2022/04/19 14:05:09;;;;;;;0.30;0.30;;;20.90;1.00;;;;;;5032576;28;20533;-75
2022/04/19 14:07:34;;;;;;;0.30;0.30;;;21.00;1.00;;;;;;5023275;28;20208;-75